sensor_id;sensor_type;location;lat;lon;timestamp;pressure;altitude;pressure_sealevel;temperature;humidity
22025;BME280;11176;51.448;6.650;2023-04-15T00:00:57;36226.06;;;-141.29;79.46
22025;BME280;11176;51.448;6.650;2023-04-15T00:03:24;36242.00;;;-141.29;79.70
22025;BME280;11176;51.448;6.650;2023-04-15T00:05:51;36242.00;;;-141.29;79.90
22025;BME280;11176;51.448;6.650;2023-04-15T00:08:18;36273.91;;;-141.29;80.25
22025;BME280;11176;51.448;6.650;2023-04-15T00:10:44;36261.94;;;-141.29;80.17
22025;BME280;11176;51.448;6.650;2023-04-15T00:13:11;36255.97;;;-141.29;80.28
22025;BME280;11176;51.448;6.650;2023-04-15T00:15:38;36265.91;;;-141.29;80.92
22025;BME280;11176;51.448;6.650;2023-04-15T00:18:04;36271.91;;;-141.29;81.33
22025;BME280;11176;51.448;6.650;2023-04-15T00:20:31;36309.78;;;-141.29;81.57
22025;BME280;11176;51.448;6.650;2023-04-15T00:22:57;36255.97;;;-141.29;81.44
22025;BME280;11176;51.448;6.650;2023-04-15T00:25:25;36301.78;;;-141.29;81.22
22025;BME280;11176;51.448;6.650;2023-04-15T00:27:52;36257.94;;;-141.29;80.50
22025;BME280;11176;51.448;6.650;2023-04-15T00:30:19;36289.84;;;-141.29;80.67
22025;BME280;11176;51.448;6.650;2023-04-15T00:32:45;36273.91;;;-141.29;80.58
22025;BME280;11176;51.448;6.650;2023-04-15T00:35:12;36285.84;;;-141.29;80.12
22025;BME280;11176;51.448;6.650;2023-04-15T00:37:39;36295.81;;;-141.29;80.60
22025;BME280;11176;51.448;6.650;2023-04-15T00:40:11;36269.91;;;-141.29;80.84
22025;BME280;11176;51.448;6.650;2023-04-15T00:42:38;36309.78;;;-141.29;80.02
22025;BME280;11176;51.448;6.650;2023-04-15T00:45:05;36273.91;;;-141.29;79.70
22025;BME280;11176;51.448;6.650;2023-04-15T00:47:32;36279.88;;;-141.29;79.16
22025;BME280;11176;51.448;6.650;2023-04-15T00:50:00;36289.84;;;-141.29;79.11
22025;BME280;11176;51.448;6.650;2023-04-15T00:52:27;36281.88;;;-141.29;79.31
22025;BME280;11176;51.448;6.650;2023-04-15T00:54:54;36263.94;;;-141.29;79.42
22025;BME280;11176;51.448;6.650;2023-04-15T00:57:21;36275.88;;;-141.29;79.81
22025;BME280;11176;51.448;6.650;2023-04-15T00:59:49;36339.66;;;-141.29;80.28
22025;BME280;11176;51.448;6.650;2023-04-15T01:02:16;36299.81;;;-141.29;81.01
22025;BME280;11176;51.448;6.650;2023-04-15T01:04:43;36309.78;;;-141.29;81.18
22025;BME280;11176;51.448;6.650;2023-04-15T01:07:09;36313.75;;;-141.29;81.31
22025;BME280;11176;51.448;6.650;2023-04-15T01:09:36;36321.72;;;-141.29;81.17
22025;BME280;11176;51.448;6.650;2023-04-15T01:12:03;36325.72;;;-141.29;82.07
22025;BME280;11176;51.448;6.650;2023-04-15T01:14:30;36319.72;;;-141.29;82.57
22025;BME280;11176;51.448;6.650;2023-04-15T01:16:58;36361.59;;;-141.29;83.45
22025;BME280;11176;51.448;6.650;2023-04-15T01:19:25;36333.69;;;-141.29;83.78
22025;BME280;11176;51.448;6.650;2023-04-15T01:21:52;36321.72;;;-141.29;83.51
22025;BME280;11176;51.448;6.650;2023-04-15T01:24:18;36353.63;;;-141.29;83.91
22025;BME280;11176;51.448;6.650;2023-04-15T01:26:47;36329.69;;;-141.29;84.53
22025;BME280;11176;51.448;6.650;2023-04-15T01:29:15;36341.66;;;-141.29;84.94
22025;BME280;11176;51.448;6.650;2023-04-15T01:31:53;36357.59;;;-141.29;85.63
22025;BME280;11176;51.448;6.650;2023-04-15T01:34:20;36349.63;;;-141.29;86.05
22025;BME280;11176;51.448;6.650;2023-04-15T01:36:47;36391.47;;;-141.29;86.25
22025;BME280;11176;51.448;6.650;2023-04-15T01:39:14;36401.44;;;-141.29;86.90
22025;BME280;11176;51.448;6.650;2023-04-15T01:41:40;36417.38;;;-141.29;87.42
22025;BME280;11176;51.448;6.650;2023-04-15T01:44:07;36381.53;;;-141.29;87.58
22025;BME280;11176;51.448;6.650;2023-04-15T01:46:34;36417.38;;;-141.29;88.16
22025;BME280;11176;51.448;6.650;2023-04-15T01:49:01;36433.34;;;-141.29;88.54
22025;BME280;11176;51.448;6.650;2023-04-15T01:51:28;36469.22;;;-141.29;89.34
22025;BME280;11176;51.448;6.650;2023-04-15T01:53:54;36457.25;;;-141.29;89.52
22025;BME280;11176;51.448;6.650;2023-04-15T01:56:22;36467.22;;;-141.29;90.39
22025;BME280;11176;51.448;6.650;2023-04-15T01:58:51;36507.09;;;-141.29;90.28
22025;BME280;11176;51.448;6.650;2023-04-15T02:01:18;36531.00;;;-141.29;90.52
22025;BME280;11176;51.448;6.650;2023-04-15T02:03:46;36533.00;;;-141.29;90.68
22025;BME280;11176;51.448;6.650;2023-04-15T02:06:14;36540.97;;;-141.29;90.80
22025;BME280;11176;51.448;6.650;2023-04-15T02:08:40;36560.91;;;-141.29;91.12
22025;BME280;11176;51.448;6.650;2023-04-15T02:11:07;36576.84;;;-141.29;91.58
22025;BME280;11176;51.448;6.650;2023-04-15T02:13:33;36600.75;;;-141.29;91.63
22025;BME280;11176;51.448;6.650;2023-04-15T02:16:00;36604.75;;;-141.29;92.16
22025;BME280;11176;51.448;6.650;2023-04-15T02:18:27;36674.50;;;-141.29;91.98
22025;BME280;11176;51.448;6.650;2023-04-15T02:20:53;36668.53;;;-141.29;92.17
22025;BME280;11176;51.448;6.650;2023-04-15T02:23:20;36670.53;;;-141.29;92.18
22025;BME280;11176;51.448;6.650;2023-04-15T02:25:47;36708.41;;;-141.29;92.45
22025;BME280;11176;51.448;6.650;2023-04-15T02:28:20;36728.31;;;-141.29;92.30
22025;BME280;11176;51.448;6.650;2023-04-15T02:30:50;36740.28;;;-141.29;91.96
22025;BME280;11176;51.448;6.650;2023-04-15T02:33:18;36744.28;;;-141.29;91.78
22025;BME280;11176;51.448;6.650;2023-04-15T02:35:45;36780.16;;;-141.29;92.27
22025;BME280;11176;51.448;6.650;2023-04-15T02:38:12;36764.22;;;-141.29;92.21
22025;BME280;11176;51.448;6.650;2023-04-15T02:40:39;36776.16;;;-141.29;92.33
22025;BME280;11176;51.448;6.650;2023-04-15T02:43:06;36788.13;;;-141.29;92.70
22025;BME280;11176;51.448;6.650;2023-04-15T02:45:33;36812.03;;;-141.29;92.76
22025;BME280;11176;51.448;6.650;2023-04-15T02:48:02;36843.94;;;-141.29;93.28
22025;BME280;11176;51.448;6.650;2023-04-15T02:50:32;36859.88;;;-141.29;93.48
22025;BME280;11176;51.448;6.650;2023-04-15T02:52:59;36883.81;;;-141.29;93.67
22025;BME280;11176;51.448;6.650;2023-04-15T02:55:28;36895.75;;;-141.29;94.17
22025;BME280;11176;51.448;6.650;2023-04-15T02:57:54;36935.63;;;-141.29;94.43
22025;BME280;11176;51.448;6.650;2023-04-15T03:00:21;36931.66;;;-141.29;94.77
22025;BME280;11176;51.448;6.650;2023-04-15T03:02:50;36971.50;;;-141.29;95.10
22025;BME280;11176;51.448;6.650;2023-04-15T03:05:22;37027.31;;;-141.29;95.34
22025;BME280;11176;51.448;6.650;2023-04-15T03:07:51;37019.34;;;-141.29;95.35
22025;BME280;11176;51.448;6.650;2023-04-15T03:10:19;37053.25;;;-141.29;95.13
22025;BME280;11176;51.448;6.650;2023-04-15T03:12:46;37075.16;;;-141.29;95.57
22025;BME280;11176;51.448;6.650;2023-04-15T03:15:16;37107.06;;;-141.29;95.53
22025;BME280;11176;51.448;6.650;2023-04-15T03:17:46;37132.97;;;-141.29;95.22
22025;BME280;11176;51.448;6.650;2023-04-15T03:20:14;37170.84;;;-141.29;95.41
22025;BME280;11176;51.448;6.650;2023-04-15T03:22:42;37184.81;;;-141.29;95.28
22025;BME280;11176;51.448;6.650;2023-04-15T03:25:09;37192.78;;;-141.29;94.97
22025;BME280;11176;51.448;6.650;2023-04-15T03:27:37;37202.75;;;-141.29;94.91
22025;BME280;11176;51.448;6.650;2023-04-15T03:30:04;37204.75;;;-141.29;95.04
22025;BME280;11176;51.448;6.650;2023-04-15T03:32:35;37246.63;;;-141.29;94.79
22025;BME280;11176;51.448;6.650;2023-04-15T03:35:01;37270.53;;;-141.29;95.04
22025;BME280;11176;51.448;6.650;2023-04-15T03:37:28;37226.69;;;-141.29;95.00
22025;BME280;11176;51.448;6.650;2023-04-15T03:39:54;37284.50;;;-141.29;95.06
22025;BME280;11176;51.448;6.650;2023-04-15T03:42:21;37314.41;;;-141.29;95.10
22025;BME280;11176;51.448;6.650;2023-04-15T03:44:47;37310.41;;;-141.29;94.72
22025;BME280;11176;51.448;6.650;2023-04-15T03:47:14;37334.34;;;-141.29;95.41
22025;BME280;11176;51.448;6.650;2023-04-15T03:49:40;37376.19;;;-141.29;95.28
22025;BME280;11176;51.448;6.650;2023-04-15T03:52:07;37386.16;;;-141.29;95.18
22025;BME280;11176;51.448;6.650;2023-04-15T03:54:33;37386.16;;;-141.29;95.24
22025;BME280;11176;51.448;6.650;2023-04-15T03:57:00;37374.22;;;-141.29;95.33
22025;BME280;11176;51.448;6.650;2023-04-15T03:59:27;37402.13;;;-141.29;95.48
22025;BME280;11176;51.448;6.650;2023-04-15T04:01:54;37438.00;;;-141.29;95.50
22025;BME280;11176;51.448;6.650;2023-04-15T04:04:20;37442.00;;;-141.29;95.21
22025;BME280;11176;51.448;6.650;2023-04-15T04:06:47;37461.94;;;-141.29;95.21
22025;BME280;11176;51.448;6.650;2023-04-15T04:09:13;37455.94;;;-141.29;95.09
22025;BME280;11176;51.448;6.650;2023-04-15T04:11:40;37465.91;;;-141.29;95.48
22025;BME280;11176;51.448;6.650;2023-04-15T04:14:07;37485.84;;;-141.29;95.72
22025;BME280;11176;51.448;6.650;2023-04-15T04:16:33;37547.66;;;-141.29;95.82
22025;BME280;11176;51.448;6.650;2023-04-15T04:18:59;37551.66;;;-141.29;95.65
22025;BME280;11176;51.448;6.650;2023-04-15T04:21:26;37545.66;;;-141.29;95.46
22025;BME280;11176;51.448;6.650;2023-04-15T04:23:53;37565.59;;;-141.29;95.44
22025;BME280;11176;51.448;6.650;2023-04-15T04:26:19;37573.56;;;-141.29;95.59
22025;BME280;11176;51.448;6.650;2023-04-15T04:28:46;37581.56;;;-141.29;95.40
22025;BME280;11176;51.448;6.650;2023-04-15T04:31:13;37573.56;;;-141.29;95.50
22025;BME280;11176;51.448;6.650;2023-04-15T04:33:39;37591.53;;;-141.29;95.88
22025;BME280;11176;51.448;6.650;2023-04-15T04:36:06;37623.41;;;-141.29;95.43
22025;BME280;11176;51.448;6.650;2023-04-15T04:38:33;37637.38;;;-141.29;95.50
22025;BME280;11176;51.448;6.650;2023-04-15T04:40:59;37629.41;;;-141.29;95.24
22025;BME280;11176;51.448;6.650;2023-04-15T04:43:26;37621.44;;;-141.29;95.75
22025;BME280;11176;51.448;6.650;2023-04-15T04:45:52;37689.22;;;-141.29;95.90
22025;BME280;11176;51.448;6.650;2023-04-15T04:48:19;37699.19;;;-141.29;95.94
22025;BME280;11176;51.448;6.650;2023-04-15T04:50:45;37689.22;;;-141.29;95.93
22025;BME280;11176;51.448;6.650;2023-04-15T04:53:12;37705.16;;;-141.29;96.02
22025;BME280;11176;51.448;6.650;2023-04-15T04:55:39;37721.13;;;-141.29;96.20
22025;BME280;11176;51.448;6.650;2023-04-15T04:58:05;37741.06;;;-141.29;95.65
22025;BME280;11176;51.448;6.650;2023-04-15T05:00:32;37739.06;;;-141.29;95.82
22025;BME280;11176;51.448;6.650;2023-04-15T05:02:58;37790.91;;;-141.29;96.08
22025;BME280;11176;51.448;6.650;2023-04-15T05:05:26;37808.84;;;-141.29;96.47
22025;BME280;11176;51.448;6.650;2023-04-15T05:07:52;37828.78;;;-141.29;96.34
22025;BME280;11176;51.448;6.650;2023-04-15T05:10:18;37828.78;;;-141.29;96.23
22025;BME280;11176;51.448;6.650;2023-04-15T05:12:45;37806.84;;;-141.29;96.25
22025;BME280;11176;51.448;6.650;2023-04-15T05:15:11;37832.78;;;-141.29;96.04
22025;BME280;11176;51.448;6.650;2023-04-15T05:17:38;37888.59;;;-141.29;96.05
22025;BME280;11176;51.448;6.650;2023-04-15T05:20:05;37872.66;;;-141.29;96.31
22025;BME280;11176;51.448;6.650;2023-04-15T05:22:31;37898.56;;;-141.29;96.62
22025;BME280;11176;51.448;6.650;2023-04-15T05:24:58;37920.50;;;-141.29;96.42
22025;BME280;11176;51.448;6.650;2023-04-15T05:27:25;37896.59;;;-141.29;96.19
22025;BME280;11176;51.448;6.650;2023-04-15T05:29:51;37926.50;;;-141.29;96.02
22025;BME280;11176;51.448;6.650;2023-04-15T05:32:18;37924.50;;;-141.29;96.11
22025;BME280;11176;51.448;6.650;2023-04-15T05:34:45;37936.47;;;-141.29;96.13
22025;BME280;11176;51.448;6.650;2023-04-15T05:37:12;37956.41;;;-141.29;96.07
22025;BME280;11176;51.448;6.650;2023-04-15T05:39:38;37928.47;;;-141.29;96.16
22025;BME280;11176;51.448;6.650;2023-04-15T05:42:05;37982.31;;;-141.29;96.42
22025;BME280;11176;51.448;6.650;2023-04-15T05:44:32;37978.34;;;-141.29;96.69
22025;BME280;11176;51.448;6.650;2023-04-15T05:46:58;38034.16;;;-141.29;96.88
22025;BME280;11176;51.448;6.650;2023-04-15T05:49:25;38050.13;;;-141.29;96.91
22025;BME280;11176;51.448;6.650;2023-04-15T05:51:51;38064.06;;;-141.29;96.99
22025;BME280;11176;51.448;6.650;2023-04-15T05:54:18;38084.00;;;-141.29;96.72
22025;BME280;11176;51.448;6.650;2023-04-15T05:56:45;38111.94;;;-141.29;96.71
22025;BME280;11176;51.448;6.650;2023-04-15T05:59:12;38095.97;;;-141.29;96.64
22025;BME280;11176;51.448;6.650;2023-04-15T06:01:38;38151.81;;;-141.29;96.74
22025;BME280;11176;51.448;6.650;2023-04-15T06:04:05;38147.81;;;-141.29;96.82
22025;BME280;11176;51.448;6.650;2023-04-15T06:06:32;38167.78;;;-141.29;96.87
22025;BME280;11176;51.448;6.650;2023-04-15T06:08:58;38211.63;;;-141.29;96.98
22025;BME280;11176;51.448;6.650;2023-04-15T06:11:25;38215.63;;;-141.29;97.38
22025;BME280;11176;51.448;6.650;2023-04-15T06:13:52;38251.53;;;-141.29;97.19
22025;BME280;11176;51.448;6.650;2023-04-15T06:16:19;38267.47;;;-141.29;97.48
22025;BME280;11176;51.448;6.650;2023-04-15T06:18:45;38307.34;;;-141.29;97.22
22025;BME280;11176;51.448;6.650;2023-04-15T06:21:12;38335.28;;;-141.29;97.66
22025;BME280;11176;51.448;6.650;2023-04-15T06:23:38;38367.19;;;-141.29;97.60
22025;BME280;11176;51.448;6.650;2023-04-15T06:26:06;38383.13;;;-141.29;97.76
22025;BME280;11176;51.448;6.650;2023-04-15T06:28:33;38395.09;;;-141.29;97.86
22025;BME280;11176;51.448;6.650;2023-04-15T06:31:00;38425.03;;;-141.29;97.62
22025;BME280;11176;51.448;6.650;2023-04-15T06:33:27;38444.97;;;-141.29;97.84
22025;BME280;11176;51.448;6.650;2023-04-15T06:35:53;38474.88;;;-141.29;97.70
22025;BME280;11176;51.448;6.650;2023-04-15T06:38:20;38494.81;;;-141.29;97.72
22025;BME280;11176;51.448;6.650;2023-04-15T06:40:46;38482.84;;;-141.29;97.54
22025;BME280;11176;51.448;6.650;2023-04-15T06:43:13;38544.69;;;-141.29;97.70
22025;BME280;11176;51.448;6.650;2023-04-15T06:45:40;38554.66;;;-141.29;97.95
22025;BME280;11176;51.448;6.650;2023-04-15T06:48:07;38606.50;;;-141.29;97.99
22025;BME280;11176;51.448;6.650;2023-04-15T06:50:34;38550.66;;;-141.29;97.20
22025;BME280;11176;51.448;6.650;2023-04-15T06:53:01;38590.56;;;-141.29;97.41
22025;BME280;11176;51.448;6.650;2023-04-15T06:55:27;38630.44;;;-141.29;97.27
22025;BME280;11176;51.448;6.650;2023-04-15T06:57:53;38654.38;;;-141.29;97.30
22025;BME280;11176;51.448;6.650;2023-04-15T07:00:21;38694.25;;;-141.29;97.68
22025;BME280;11176;51.448;6.650;2023-04-15T07:02:47;38688.28;;;-141.29;97.48
22025;BME280;11176;51.448;6.650;2023-04-15T07:05:15;38708.22;;;-141.29;97.18
22025;BME280;11176;51.448;6.650;2023-04-15T07:07:41;38724.16;;;-141.29;97.34
22025;BME280;11176;51.448;6.650;2023-04-15T07:10:08;38722.19;;;-141.29;97.00
22025;BME280;11176;51.448;6.650;2023-04-15T07:12:35;38710.22;;;-141.29;96.53
22025;BME280;11176;51.448;6.650;2023-04-15T07:15:02;38722.19;;;-141.29;96.28
22025;BME280;11176;51.448;6.650;2023-04-15T07:17:28;38726.16;;;-141.29;95.98
22025;BME280;11176;51.448;6.650;2023-04-15T07:19:55;38714.19;;;-141.29;95.11
22025;BME280;11176;51.448;6.650;2023-04-15T07:22:21;38664.34;;;-141.29;94.03
22025;BME280;11176;51.448;6.650;2023-04-15T07:24:48;38678.31;;;-141.29;93.59
22025;BME280;11176;51.448;6.650;2023-04-15T07:27:14;38606.50;;;-141.29;92.59
22025;BME280;11176;51.448;6.650;2023-04-15T07:29:41;38522.75;;;-141.29;90.01
22025;BME280;11176;51.448;6.650;2023-04-15T07:32:07;38468.91;;;-141.29;88.55
22025;BME280;11176;51.448;6.650;2023-04-15T07:34:35;38435.00;;;-141.29;87.45
22025;BME280;11176;51.448;6.650;2023-04-15T07:37:02;38357.22;;;-141.29;85.84
22025;BME280;11176;51.448;6.650;2023-04-15T07:39:29;38307.34;;;-141.29;84.54
22025;BME280;11176;51.448;6.650;2023-04-15T07:41:56;38175.75;;;-141.29;80.31
22025;BME280;11176;51.448;6.650;2023-04-15T07:44:25;38155.81;;;-141.29;79.95
22025;BME280;11176;51.448;6.650;2023-04-15T07:46:52;38155.81;;;-141.29;80.21
22025;BME280;11176;51.448;6.650;2023-04-15T07:49:19;38143.84;;;-141.29;79.69
22025;BME280;11176;51.448;6.650;2023-04-15T07:51:47;38054.09;;;-141.29;77.29
22025;BME280;11176;51.448;6.650;2023-04-15T07:54:14;38016.22;;;-141.29;75.29
22025;BME280;11176;51.448;6.650;2023-04-15T07:56:40;37964.38;;;-141.29;74.70
22025;BME280;11176;51.448;6.650;2023-04-15T07:59:08;37908.53;;;-141.29;74.18
22025;BME280;11176;51.448;6.650;2023-04-15T08:01:35;37908.53;;;-141.29;73.98
22025;BME280;11176;51.448;6.650;2023-04-15T08:04:02;37910.53;;;-141.29;74.39
22025;BME280;11176;51.448;6.650;2023-04-15T08:06:29;37890.59;;;-141.29;73.41
22025;BME280;11176;51.448;6.650;2023-04-15T08:08:56;37880.63;;;-141.29;74.20
22025;BME280;11176;51.448;6.650;2023-04-15T08:11:22;37844.75;;;-141.29;73.49
22025;BME280;11176;51.448;6.650;2023-04-15T08:13:49;37868.66;;;-141.29;74.02
22025;BME280;11176;51.448;6.650;2023-04-15T08:16:22;37862.69;;;-141.29;74.04
22025;BME280;11176;51.448;6.650;2023-04-15T08:18:51;37856.69;;;-141.29;74.46
22025;BME280;11176;51.448;6.650;2023-04-15T08:21:18;37878.63;;;-141.29;73.61
22025;BME280;11176;51.448;6.650;2023-04-15T08:23:47;37872.66;;;-141.29;73.74
22025;BME280;11176;51.448;6.650;2023-04-15T08:26:15;37852.72;;;-141.29;72.86
22025;BME280;11176;51.448;6.650;2023-04-15T08:28:43;37860.69;;;-141.29;72.62
22025;BME280;11176;51.448;6.650;2023-04-15T08:31:11;37886.59;;;-141.29;73.11
22025;BME280;11176;51.448;6.650;2023-04-15T08:33:38;37812.84;;;-141.29;71.13
22025;BME280;11176;51.448;6.650;2023-04-15T08:36:04;37816.81;;;-141.29;70.84
22025;BME280;11176;51.448;6.650;2023-04-15T08:38:33;37800.88;;;-141.29;70.47
22025;BME280;11176;51.448;6.650;2023-04-15T08:41:03;37806.84;;;-141.29;70.55
22025;BME280;11176;51.448;6.650;2023-04-15T08:43:33;37802.88;;;-141.29;70.11
22025;BME280;11176;51.448;6.650;2023-04-15T08:46:01;37776.94;;;-141.29;69.34
22025;BME280;11176;51.448;6.650;2023-04-15T08:48:32;37784.91;;;-141.29;69.35
22025;BME280;11176;51.448;6.650;2023-04-15T08:51:00;37792.91;;;-141.29;68.89
22025;BME280;11176;51.448;6.650;2023-04-15T08:53:28;37772.97;;;-141.29;68.39
22025;BME280;11176;51.448;6.650;2023-04-15T08:55:56;37770.97;;;-141.29;68.98
22025;BME280;11176;51.448;6.650;2023-04-15T08:58:24;37790.91;;;-141.29;69.65
22025;BME280;11176;51.448;6.650;2023-04-15T09:00:50;37840.75;;;-141.29;70.35
22025;BME280;11176;51.448;6.650;2023-04-15T09:03:17;37804.84;;;-141.29;70.44
22025;BME280;11176;51.448;6.650;2023-04-15T09:05:44;37832.78;;;-141.29;70.25
22025;BME280;11176;51.448;6.650;2023-04-15T09:08:12;37828.78;;;-141.29;70.00
22025;BME280;11176;51.448;6.650;2023-04-15T09:10:38;37928.47;;;-141.29;73.63
22025;BME280;11176;51.448;6.650;2023-04-15T09:13:05;37872.66;;;-141.29;70.91
22025;BME280;11176;51.448;6.650;2023-04-15T09:15:32;37876.63;;;-141.29;70.54
22025;BME280;11176;51.448;6.650;2023-04-15T09:17:58;37848.72;;;-141.29;69.89
22025;BME280;11176;51.448;6.650;2023-04-15T09:20:25;37832.78;;;-141.29;69.31
22025;BME280;11176;51.448;6.650;2023-04-15T09:22:52;37836.75;;;-141.29;68.92
22025;BME280;11176;51.448;6.650;2023-04-15T09:27:48;37800.88;;;-141.29;68.20
22025;BME280;11176;51.448;6.650;2023-04-15T09:30:15;37830.78;;;-141.29;70.83
22025;BME280;11176;51.448;6.650;2023-04-15T09:32:58;37844.75;;;-141.29;69.51
22025;BME280;11176;51.448;6.650;2023-04-15T09:35:26;37850.72;;;-141.29;69.66
22025;BME280;11176;51.448;6.650;2023-04-15T09:38:06;37776.94;;;-141.29;66.78
22025;BME280;11176;51.448;6.650;2023-04-15T09:40:35;37761.00;;;-141.29;66.80
22025;BME280;11176;51.448;6.650;2023-04-15T09:43:03;37768.97;;;-141.29;66.64
22025;BME280;11176;51.448;6.650;2023-04-15T09:45:32;37745.03;;;-141.29;66.22
22025;BME280;11176;51.448;6.650;2023-04-15T09:48:14;37753.03;;;-141.29;66.50
22025;BME280;11176;51.448;6.650;2023-04-15T09:50:42;37770.97;;;-141.29;66.90
22025;BME280;11176;51.448;6.650;2023-04-15T09:53:09;37768.97;;;-141.29;67.29
22025;BME280;11176;51.448;6.650;2023-04-15T09:55:43;37763.00;;;-141.29;67.14
22025;BME280;11176;51.448;6.650;2023-04-15T09:58:26;37764.97;;;-141.29;66.93
22025;BME280;11176;51.448;6.650;2023-04-15T10:00:55;37776.94;;;-141.29;67.23
22025;BME280;11176;51.448;6.650;2023-04-15T10:03:30;37788.91;;;-141.29;66.41
22025;BME280;11176;51.448;6.650;2023-04-15T10:05:59;37761.00;;;-141.29;65.96
22025;BME280;11176;51.448;6.650;2023-04-15T10:08:31;37764.97;;;-141.29;65.68
22025;BME280;11176;51.448;6.650;2023-04-15T10:10:59;37749.03;;;-141.29;65.89
22025;BME280;11176;51.448;6.650;2023-04-15T10:13:29;37796.88;;;-141.29;66.45
22025;BME280;11176;51.448;6.650;2023-04-15T10:16:21;37798.88;;;-141.29;66.82
22025;BME280;11176;51.448;6.650;2023-04-15T10:18:52;37820.81;;;-141.29;67.60
22025;BME280;11176;51.448;6.650;2023-04-15T10:21:20;37828.78;;;-141.29;67.76
22025;BME280;11176;51.448;6.650;2023-04-15T10:23:49;37854.72;;;-141.29;67.88
22025;BME280;11176;51.448;6.650;2023-04-15T10:26:16;37844.75;;;-141.29;66.78
22025;BME280;11176;51.448;6.650;2023-04-15T10:28:44;37838.75;;;-141.29;66.29
22025;BME280;11176;51.448;6.650;2023-04-15T10:31:12;37804.84;;;-141.29;65.69
22025;BME280;11176;51.448;6.650;2023-04-15T10:33:41;37798.88;;;-141.29;65.81
22025;BME280;11176;51.448;6.650;2023-04-15T10:36:09;37794.88;;;-141.29;66.02
22025;BME280;11176;51.448;6.650;2023-04-15T10:38:43;37800.88;;;-141.29;64.38
22025;BME280;11176;51.448;6.650;2023-04-15T10:41:26;37784.91;;;-141.29;63.81
22025;BME280;11176;51.448;6.650;2023-04-15T10:49:07;37796.88;;;-141.29;64.34
22025;BME280;11176;51.448;6.650;2023-04-15T10:51:43;37830.78;;;-141.29;64.17
22025;BME280;11176;51.448;6.650;2023-04-15T10:54:15;37800.88;;;-141.29;64.04
22025;BME280;11176;51.448;6.650;2023-04-15T10:56:43;37784.91;;;-141.29;64.11
22025;BME280;11176;51.448;6.650;2023-04-15T10:59:10;37761.00;;;-141.29;63.85
22025;BME280;11176;51.448;6.650;2023-04-15T11:02:12;37788.91;;;-141.29;64.55
22025;BME280;11176;51.448;6.650;2023-04-15T11:04:55;37816.81;;;-141.29;64.86
22025;BME280;11176;51.448;6.650;2023-04-15T11:12:48;37764.97;;;-141.29;62.83
22025;BME280;11176;51.448;6.650;2023-04-15T11:15:31;37747.03;;;-141.29;61.90
22025;BME280;11176;51.448;6.650;2023-04-15T11:20:35;37737.06;;;-141.29;62.23
22025;BME280;11176;51.448;6.650;2023-04-15T11:23:03;37768.97;;;-141.29;62.77
22025;BME280;11176;51.448;6.650;2023-04-15T11:25:40;37725.09;;;-141.29;62.88
22025;BME280;11176;51.448;6.650;2023-04-15T11:28:08;37725.09;;;-141.29;62.12
22025;BME280;11176;51.448;6.650;2023-04-15T11:30:35;37709.16;;;-141.29;62.12
22025;BME280;11176;51.448;6.650;2023-04-15T11:33:07;37705.16;;;-141.29;62.35
22025;BME280;11176;51.448;6.650;2023-04-15T11:35:34;37713.13;;;-141.29;62.47
22025;BME280;11176;51.448;6.650;2023-04-15T11:38:08;37713.13;;;-141.29;62.04
22025;BME280;11176;51.448;6.650;2023-04-15T11:40:36;37681.25;;;-141.29;63.28
22025;BME280;11176;51.448;6.650;2023-04-15T11:43:14;37677.25;;;-141.29;63.39
22025;BME280;11176;51.448;6.650;2023-04-15T11:45:54;37677.25;;;-141.29;62.90
22025;BME280;11176;51.448;6.650;2023-04-15T11:48:23;37673.25;;;-141.29;63.14
22025;BME280;11176;51.448;6.650;2023-04-15T11:50:54;37681.25;;;-141.29;63.34
22025;BME280;11176;51.448;6.650;2023-04-15T11:53:21;37701.19;;;-141.29;63.46
22025;BME280;11176;51.448;6.650;2023-04-15T11:55:52;37667.28;;;-141.29;62.94
22025;BME280;11176;51.448;6.650;2023-04-15T11:58:21;37685.22;;;-141.29;61.93
22025;BME280;11176;51.448;6.650;2023-04-15T12:00:53;37645.34;;;-141.29;62.79
22025;BME280;11176;51.448;6.650;2023-04-15T12:14:11;37633.38;;;-141.29;63.83
22025;BME280;11176;51.448;6.650;2023-04-15T12:16:40;37635.38;;;-141.29;64.27
22025;BME280;11176;51.448;6.650;2023-04-15T12:19:29;37649.34;;;-141.29;64.77
22025;BME280;11176;51.448;6.650;2023-04-15T12:24:32;37629.41;;;-141.29;64.31
22025;BME280;11176;51.448;6.650;2023-04-15T12:27:07;37605.47;;;-141.29;64.89
22025;BME280;11176;51.448;6.650;2023-04-15T12:29:35;37633.38;;;-141.29;65.12
22025;BME280;11176;51.448;6.650;2023-04-15T12:32:15;37639.38;;;-141.29;64.70
22025;BME280;11176;51.448;6.650;2023-04-15T12:34:52;37653.31;;;-141.29;64.97
22025;BME280;11176;51.448;6.650;2023-04-15T12:37:22;37641.38;;;-141.29;64.88
22025;BME280;11176;51.448;6.650;2023-04-15T12:39:49;37585.53;;;-141.29;64.33
22025;BME280;11176;51.448;6.650;2023-04-15T12:42:16;37609.47;;;-141.29;64.19
22025;BME280;11176;51.448;6.650;2023-04-15T12:44:43;37577.56;;;-141.29;64.61
22025;BME280;11176;51.448;6.650;2023-04-15T12:47:10;37629.41;;;-141.29;65.30
22025;BME280;11176;51.448;6.650;2023-04-15T12:49:37;37607.47;;;-141.29;65.63
22025;BME280;11176;51.448;6.650;2023-04-15T12:52:04;37625.41;;;-141.29;66.54
22025;BME280;11176;51.448;6.650;2023-04-15T12:54:31;37617.44;;;-141.29;66.91
22025;BME280;11176;51.448;6.650;2023-04-15T12:56:58;37619.44;;;-141.29;66.56
22025;BME280;11176;51.448;6.650;2023-04-15T12:59:25;37593.50;;;-141.29;68.02
22025;BME280;11176;51.448;6.650;2023-04-15T13:01:52;37621.44;;;-141.29;66.92
22025;BME280;11176;51.448;6.650;2023-04-15T13:04:20;37625.41;;;-141.29;66.68
22025;BME280;11176;51.448;6.650;2023-04-15T13:06:47;37641.38;;;-141.29;68.09
22025;BME280;11176;51.448;6.650;2023-04-15T13:09:13;37605.47;;;-141.29;67.66
22025;BME280;11176;51.448;6.650;2023-04-15T13:11:40;37595.50;;;-141.29;66.89
22025;BME280;11176;51.448;6.650;2023-04-15T13:14:08;37617.44;;;-141.29;67.12